<?xml version="1.0" encoding="UTF-8"?>
<gpx version="1.1" creator="GPSBabel - http://www.gpsbabel.org" xmlns="http://www.topografix.com/GPX/1/1" xmlns:xsi="http://www.w3.org/2001/XMLSchema-instance">
  <metadata>
    <time>2017-02-16T16:59:56.948Z</time>
    <bounds minlat="31.635155000" minlon="34.868571000" maxlat="31.706000000" maxlon="34.933406000"/>
  </metadata>
  <trk>
    <name>פארק בריטניה-בית ניר</name>
    <cmt/>
    <trkseg>
      <trkpt lat="31.703475000" lon="34.929189000">
        <ele>245.200000</ele>
        <time>2014-01-24T10:27:32Z</time>
      </trkpt>
      <trkpt lat="31.703425000" lon="34.929017000">
        <ele>243.900000</ele>
        <time>2014-01-24T10:28:51Z</time>
      </trkpt>
      <trkpt lat="31.702936000" lon="34.928864000">
        <ele>246.100000</ele>
        <time>2014-01-24T10:29:20Z</time>
      </trkpt>
      <trkpt lat="31.700701000" lon="34.927244000">
        <ele>264.100000</ele>
        <time>2014-01-24T10:31:26Z</time>
      </trkpt>
      <trkpt lat="31.699193000" lon="34.927515000">
        <ele>275.100000</ele>
        <time>2014-01-24T10:32:39Z</time>
      </trkpt>
      <trkpt lat="31.698330000" lon="34.927885000">
        <ele>281.300000</ele>
        <time>2014-01-24T10:33:14Z</time>
      </trkpt>
      <trkpt lat="31.697678000" lon="34.929050000">
        <ele>285.400000</ele>
        <time>2014-01-24T10:33:47Z</time>
      </trkpt>
      <trkpt lat="31.697238000" lon="34.929288000">
        <ele>289.200000</ele>
        <time>2014-01-24T10:33:58Z</time>
      </trkpt>
      <trkpt lat="31.696745000" lon="34.929335000">
        <ele>292.400000</ele>
        <time>2014-01-24T10:34:08Z</time>
      </trkpt>
      <trkpt lat="31.695529000" lon="34.928810000">
        <ele>294.900000</ele>
        <time>2014-01-24T10:34:43Z</time>
      </trkpt>
      <trkpt lat="31.694189000" lon="34.928962000">
        <ele>300.000000</ele>
        <time>2014-01-24T10:35:35Z</time>
      </trkpt>
      <trkpt lat="31.693911000" lon="34.929457000">
        <ele>301.200000</ele>
        <time>2014-01-24T10:35:50Z</time>
      </trkpt>
      <trkpt lat="31.694111000" lon="34.930638000">
        <ele>304.800000</ele>
        <time>2014-01-24T10:36:14Z</time>
      </trkpt>
      <trkpt lat="31.694011000" lon="34.930945000">
        <ele>305.300000</ele>
        <time>2014-01-24T10:36:23Z</time>
      </trkpt>
      <trkpt lat="31.693805000" lon="34.931073000">
        <ele>306.200000</ele>
        <time>2014-01-24T10:36:29Z</time>
      </trkpt>
      <trkpt lat="31.692777000" lon="34.931134000">
        <ele>313.600000</ele>
        <time>2014-01-24T10:36:53Z</time>
      </trkpt>
      <trkpt lat="31.691626000" lon="34.932134000">
        <ele>306.300000</ele>
        <time>2014-01-24T10:37:22Z</time>
      </trkpt>
      <trkpt lat="31.690997000" lon="34.931626000">
        <ele>306.700000</ele>
        <time>2014-01-24T10:37:38Z</time>
      </trkpt>
      <trkpt lat="31.690921000" lon="34.931266000">
        <ele>307.300000</ele>
        <time>2014-01-24T10:37:44Z</time>
      </trkpt>
      <trkpt lat="31.690231000" lon="34.930196000">
        <ele>316.900000</ele>
        <time>2014-01-24T10:39:00Z</time>
      </trkpt>
      <trkpt lat="31.689399000" lon="34.929963000">
        <ele>326.400000</ele>
        <time>2014-01-24T10:39:37Z</time>
      </trkpt>
      <trkpt lat="31.688858000" lon="34.930041000">
        <ele>330.500000</ele>
        <time>2014-01-24T10:39:49Z</time>
      </trkpt>
      <trkpt lat="31.688749000" lon="34.930798000">
        <ele>331.400000</ele>
        <time>2014-01-24T10:40:25Z</time>
      </trkpt>
      <trkpt lat="31.688419000" lon="34.931313000">
        <ele>335.600000</ele>
        <time>2014-01-24T10:40:40Z</time>
      </trkpt>
      <trkpt lat="31.688310000" lon="34.932118000">
        <ele>331.600000</ele>
        <time>2014-01-24T10:40:56Z</time>
      </trkpt>
      <trkpt lat="31.688392000" lon="34.932760000">
        <ele>332.200000</ele>
        <time>2014-01-24T10:41:12Z</time>
      </trkpt>
      <trkpt lat="31.687944000" lon="34.933406000">
        <ele>331.400000</ele>
        <time>2014-01-24T10:41:29Z</time>
      </trkpt>
      <trkpt lat="31.687329000" lon="34.932607000">
        <ele>328.700000</ele>
        <time>2014-01-24T10:41:49Z</time>
      </trkpt>
      <trkpt lat="31.686273000" lon="34.929740000">
        <ele>300.200000</ele>
        <time>2014-01-24T10:42:18Z</time>
      </trkpt>
      <trkpt lat="31.685961000" lon="34.929859000">
        <ele>298.600000</ele>
        <time>2014-01-24T10:42:27Z</time>
      </trkpt>
      <trkpt lat="31.685554000" lon="34.930561000">
        <ele>303.300000</ele>
        <time>2014-01-24T10:42:56Z</time>
      </trkpt>
      <trkpt lat="31.685012000" lon="34.931118000">
        <ele>308.600000</ele>
        <time>2014-01-24T10:43:28Z</time>
      </trkpt>
      <trkpt lat="31.684636000" lon="34.932069000">
        <ele>314.700000</ele>
        <time>2014-01-24T10:44:20Z</time>
      </trkpt>
      <trkpt lat="31.684206000" lon="34.932443000">
        <ele>319.400000</ele>
        <time>2014-01-24T10:44:38Z</time>
      </trkpt>
      <trkpt lat="31.683971000" lon="34.932360000">
        <ele>324.700000</ele>
        <time>2014-01-24T10:44:42Z</time>
      </trkpt>
      <trkpt lat="31.683568000" lon="34.931597000">
        <ele>324.300000</ele>
        <time>2014-01-24T10:44:54Z</time>
      </trkpt>
      <trkpt lat="31.683437000" lon="34.930718000">
        <ele>327.400000</ele>
        <time>2014-01-24T10:45:11Z</time>
      </trkpt>
      <trkpt lat="31.683904000" lon="34.928992000">
        <ele>322.500000</ele>
        <time>2014-01-24T10:45:35Z</time>
      </trkpt>
      <trkpt lat="31.684404000" lon="34.927910000">
        <ele>319.000000</ele>
        <time>2014-01-24T10:45:49Z</time>
      </trkpt>
      <trkpt lat="31.684208000" lon="34.927247000">
        <ele>318.400000</ele>
        <time>2014-01-24T10:46:03Z</time>
      </trkpt>
      <trkpt lat="31.684440000" lon="34.926860000">
        <ele>317.400000</ele>
        <time>2014-01-24T10:46:19Z</time>
      </trkpt>
      <trkpt lat="31.684246000" lon="34.925302000">
        <ele>312.900000</ele>
        <time>2014-01-24T10:46:48Z</time>
      </trkpt>
      <trkpt lat="31.684760000" lon="34.924673000">
        <ele>301.000000</ele>
        <time>2014-01-24T10:46:58Z</time>
      </trkpt>
      <trkpt lat="31.684816000" lon="34.924390000">
        <ele>299.500000</ele>
        <time>2014-01-24T10:47:02Z</time>
      </trkpt>
      <trkpt lat="31.683710000" lon="34.922193000">
        <ele>301.900000</ele>
        <time>2014-01-24T10:47:40Z</time>
      </trkpt>
      <trkpt lat="31.683702000" lon="34.921808000">
        <ele>301.400000</ele>
        <time>2014-01-24T10:47:46Z</time>
      </trkpt>
      <trkpt lat="31.684216000" lon="34.920585000">
        <ele>299.000000</ele>
        <time>2014-01-24T10:48:10Z</time>
      </trkpt>
      <trkpt lat="31.684065000" lon="34.919561000">
        <ele>296.500000</ele>
        <time>2014-01-24T10:48:27Z</time>
      </trkpt>
      <trkpt lat="31.683622000" lon="34.918817000">
        <ele>294.500000</ele>
        <time>2014-01-24T10:48:44Z</time>
      </trkpt>
      <trkpt lat="31.682748000" lon="34.917977000">
        <ele>292.300000</ele>
        <time>2014-01-24T10:49:23Z</time>
      </trkpt>
      <trkpt lat="31.682630000" lon="34.917618000">
        <ele>288.900000</ele>
        <time>2014-01-24T10:49:31Z</time>
      </trkpt>
      <trkpt lat="31.682690000" lon="34.916976000">
        <ele>286.200000</ele>
        <time>2014-01-24T10:49:46Z</time>
      </trkpt>
      <trkpt lat="31.682160000" lon="34.916392000">
        <ele>281.700000</ele>
        <time>2014-01-24T10:50:12Z</time>
      </trkpt>
      <trkpt lat="31.681577000" lon="34.916607000">
        <ele>269.700000</ele>
        <time>2014-01-24T10:50:26Z</time>
      </trkpt>
      <trkpt lat="31.681141000" lon="34.917126000">
        <ele>257.100000</ele>
        <time>2014-01-24T10:50:34Z</time>
      </trkpt>
      <trkpt lat="31.680301000" lon="34.917636000">
        <ele>256.200000</ele>
        <time>2014-01-24T10:50:49Z</time>
      </trkpt>
      <trkpt lat="31.679756000" lon="34.917782000">
        <ele>260.100000</ele>
        <time>2014-01-24T10:51:02Z</time>
      </trkpt>
      <trkpt lat="31.679430000" lon="34.917709000">
        <ele>259.800000</ele>
        <time>2014-01-24T10:51:11Z</time>
      </trkpt>
      <trkpt lat="31.679495000" lon="34.917410000">
        <ele>261.100000</ele>
        <time>2014-01-24T10:51:25Z</time>
      </trkpt>
      <trkpt lat="31.679334000" lon="34.917321000">
        <ele>262.800000</ele>
        <time>2014-01-24T10:51:37Z</time>
      </trkpt>
      <trkpt lat="31.678812000" lon="34.917568000">
        <ele>268.100000</ele>
        <time>2014-01-24T10:51:54Z</time>
      </trkpt>
      <trkpt lat="31.678683000" lon="34.917781000">
        <ele>267.900000</ele>
        <time>2014-01-24T10:51:58Z</time>
      </trkpt>
      <trkpt lat="31.678509000" lon="34.918522000">
        <ele>265.100000</ele>
        <time>2014-01-24T10:52:11Z</time>
      </trkpt>
      <trkpt lat="31.679213000" lon="34.918784000">
        <ele>264.800000</ele>
        <time>2014-01-24T10:52:37Z</time>
      </trkpt>
      <trkpt lat="31.679768000" lon="34.919321000">
        <ele>271.000000</ele>
        <time>2014-01-24T10:53:14Z</time>
      </trkpt>
      <trkpt lat="31.679463000" lon="34.920273000">
        <ele>278.400000</ele>
        <time>2014-01-24T10:54:10Z</time>
      </trkpt>
      <trkpt lat="31.679526000" lon="34.920625000">
        <ele>280.600000</ele>
        <time>2014-01-24T10:54:31Z</time>
      </trkpt>
      <trkpt lat="31.679130000" lon="34.921309000">
        <ele>287.500000</ele>
        <time>2014-01-24T10:55:07Z</time>
      </trkpt>
      <trkpt lat="31.679055000" lon="34.921836000">
        <ele>289.800000</ele>
        <time>2014-01-24T10:55:23Z</time>
      </trkpt>
      <trkpt lat="31.679068000" lon="34.922217000">
        <ele>293.300000</ele>
        <time>2014-01-24T10:55:31Z</time>
      </trkpt>
      <trkpt lat="31.679526000" lon="34.923376000">
        <ele>295.600000</ele>
        <time>2014-01-24T10:56:18Z</time>
      </trkpt>
      <trkpt lat="31.679627000" lon="34.924624000">
        <ele>305.700000</ele>
        <time>2014-01-24T10:57:20Z</time>
      </trkpt>
      <trkpt lat="31.679301000" lon="34.925277000">
        <ele>313.600000</ele>
        <time>2014-01-24T10:57:41Z</time>
      </trkpt>
      <trkpt lat="31.678371000" lon="34.925738000">
        <ele>321.500000</ele>
        <time>2014-01-24T10:58:16Z</time>
      </trkpt>
      <trkpt lat="31.677786000" lon="34.926855000">
        <ele>330.700000</ele>
        <time>2014-01-24T10:59:11Z</time>
      </trkpt>
      <trkpt lat="31.677726000" lon="34.927428000">
        <ele>334.300000</ele>
        <time>2014-01-24T11:00:09Z</time>
      </trkpt>
      <trkpt lat="31.677306000" lon="34.927442000">
        <ele>339.600000</ele>
        <time>2014-01-24T11:03:26Z</time>
      </trkpt>
      <trkpt lat="31.676253000" lon="34.927065000">
        <ele>349.400000</ele>
        <time>2014-01-24T11:04:16Z</time>
      </trkpt>
      <trkpt lat="31.675666000" lon="34.926545000">
        <ele>353.600000</ele>
        <time>2014-01-24T11:04:39Z</time>
      </trkpt>
      <trkpt lat="31.674911000" lon="34.926408000">
        <ele>359.200000</ele>
        <time>2014-01-24T11:04:57Z</time>
      </trkpt>
      <trkpt lat="31.674568000" lon="34.926180000">
        <ele>358.800000</ele>
        <time>2014-01-24T11:05:03Z</time>
      </trkpt>
      <trkpt lat="31.674039000" lon="34.925512000">
        <ele>354.700000</ele>
        <time>2014-01-24T11:05:13Z</time>
      </trkpt>
      <trkpt lat="31.673839000" lon="34.924646000">
        <ele>351.400000</ele>
        <time>2014-01-24T11:05:23Z</time>
      </trkpt>
      <trkpt lat="31.673588000" lon="34.924506000">
        <ele>350.600000</ele>
        <time>2014-01-24T11:05:27Z</time>
      </trkpt>
      <trkpt lat="31.672282000" lon="34.924537000">
        <ele>346.700000</ele>
        <time>2014-01-24T11:05:47Z</time>
      </trkpt>
      <trkpt lat="31.671757000" lon="34.924745000">
        <ele>351.900000</ele>
        <time>2014-01-24T11:05:58Z</time>
      </trkpt>
      <trkpt lat="31.671618000" lon="34.925084000">
        <ele>352.000000</ele>
        <time>2014-01-24T11:06:07Z</time>
      </trkpt>
      <trkpt lat="31.671938000" lon="34.926019000">
        <ele>351.200000</ele>
        <time>2014-01-24T11:06:34Z</time>
      </trkpt>
      <trkpt lat="31.671818000" lon="34.926515000">
        <ele>350.100000</ele>
        <time>2014-01-24T11:06:47Z</time>
      </trkpt>
      <trkpt lat="31.671492000" lon="34.926541000">
        <ele>351.000000</ele>
        <time>2014-01-24T11:06:56Z</time>
      </trkpt>
      <trkpt lat="31.670759000" lon="34.926019000">
        <ele>351.300000</ele>
        <time>2014-01-24T11:07:21Z</time>
      </trkpt>
      <trkpt lat="31.670105000" lon="34.925871000">
        <ele>347.900000</ele>
        <time>2014-01-24T11:07:35Z</time>
      </trkpt>
      <trkpt lat="31.669122000" lon="34.926149000">
        <ele>336.700000</ele>
        <time>2014-01-24T11:07:55Z</time>
      </trkpt>
      <trkpt lat="31.668672000" lon="34.923494000">
        <ele>343.500000</ele>
        <time>2014-01-24T11:09:14Z</time>
      </trkpt>
      <trkpt lat="31.668611000" lon="34.921761000">
        <ele>350.100000</ele>
        <time>2014-01-24T11:10:14Z</time>
      </trkpt>
      <trkpt lat="31.668069000" lon="34.921008000">
        <ele>353.700000</ele>
        <time>2014-01-24T11:10:46Z</time>
      </trkpt>
      <trkpt lat="31.667876000" lon="34.921057000">
        <ele>355.000000</ele>
        <time>2014-01-24T11:10:56Z</time>
      </trkpt>
      <trkpt lat="31.667453000" lon="34.921736000">
        <ele>359.300000</ele>
        <time>2014-01-24T11:11:28Z</time>
      </trkpt>
      <trkpt lat="31.667144000" lon="34.921814000">
        <ele>360.600000</ele>
        <time>2014-01-24T11:11:41Z</time>
      </trkpt>
      <trkpt lat="31.666198000" lon="34.921189000">
        <ele>366.900000</ele>
        <time>2014-01-24T11:12:03Z</time>
      </trkpt>
      <trkpt lat="31.664786000" lon="34.920885000">
        <ele>359.800000</ele>
        <time>2014-01-24T11:12:28Z</time>
      </trkpt>
      <trkpt lat="31.664683000" lon="34.921066000">
        <ele>360.000000</ele>
        <time>2014-01-24T11:12:33Z</time>
      </trkpt>
      <trkpt lat="31.664957000" lon="34.921928000">
        <ele>366.200000</ele>
        <time>2014-01-24T11:12:52Z</time>
      </trkpt>
      <trkpt lat="31.664887000" lon="34.922176000">
        <ele>368.000000</ele>
        <time>2014-01-24T11:12:57Z</time>
      </trkpt>
      <trkpt lat="31.664009000" lon="34.922193000">
        <ele>370.100000</ele>
        <time>2014-01-24T11:13:16Z</time>
      </trkpt>
      <trkpt lat="31.663481000" lon="34.921991000">
        <ele>365.400000</ele>
        <time>2014-01-24T11:13:28Z</time>
      </trkpt>
      <trkpt lat="31.663017000" lon="34.922061000">
        <ele>364.700000</ele>
        <time>2014-01-24T11:13:40Z</time>
      </trkpt>
      <trkpt lat="31.662252000" lon="34.920194000">
        <ele>353.900000</ele>
        <time>2014-01-24T11:16:11Z</time>
      </trkpt>
      <trkpt lat="31.661963000" lon="34.919724000">
        <ele>355.600000</ele>
        <time>2014-01-24T11:16:32Z</time>
      </trkpt>
      <trkpt lat="31.661605000" lon="34.919542000">
        <ele>359.000000</ele>
        <time>2014-01-24T11:16:55Z</time>
      </trkpt>
      <trkpt lat="31.661504000" lon="34.919570000">
        <ele>360.000000</ele>
        <time>2014-01-24T11:17:00Z</time>
      </trkpt>
      <trkpt lat="31.661602000" lon="34.920675000">
        <ele>369.400000</ele>
        <time>2014-01-24T11:18:24Z</time>
      </trkpt>
      <trkpt lat="31.661330000" lon="34.921137000">
        <ele>375.400000</ele>
        <time>2014-01-24T11:19:03Z</time>
      </trkpt>
      <trkpt lat="31.660300000" lon="34.921270000">
        <ele>381.900000</ele>
        <time>2014-01-24T11:20:10Z</time>
      </trkpt>
      <trkpt lat="31.659252000" lon="34.920982000">
        <ele>390.900000</ele>
        <time>2014-01-24T11:20:42Z</time>
      </trkpt>
      <trkpt lat="31.658992000" lon="34.921218000">
        <ele>390.800000</ele>
        <time>2014-01-24T11:20:51Z</time>
      </trkpt>
      <trkpt lat="31.658713000" lon="34.921850000">
        <ele>391.000000</ele>
        <time>2014-01-24T11:21:21Z</time>
      </trkpt>
      <trkpt lat="31.657855000" lon="34.922705000">
        <ele>384.800000</ele>
        <time>2014-01-24T11:21:35Z</time>
      </trkpt>
      <trkpt lat="31.656988000" lon="34.922630000">
        <ele>376.900000</ele>
        <time>2014-01-24T11:21:53Z</time>
      </trkpt>
      <trkpt lat="31.656184000" lon="34.922186000">
        <ele>374.300000</ele>
        <time>2014-01-24T11:22:18Z</time>
      </trkpt>
      <trkpt lat="31.655192000" lon="34.921925000">
        <ele>375.800000</ele>
        <time>2014-01-24T11:22:51Z</time>
      </trkpt>
      <trkpt lat="31.654460000" lon="34.921565000">
        <ele>384.700000</ele>
        <time>2014-01-24T11:23:38Z</time>
      </trkpt>
      <trkpt lat="31.653936000" lon="34.921876000">
        <ele>392.900000</ele>
        <time>2014-01-24T11:24:00Z</time>
      </trkpt>
      <trkpt lat="31.653513000" lon="34.921693000">
        <ele>396.000000</ele>
        <time>2014-01-24T11:24:09Z</time>
      </trkpt>
      <trkpt lat="31.653221000" lon="34.921365000">
        <ele>398.400000</ele>
        <time>2014-01-24T11:24:15Z</time>
      </trkpt>
      <trkpt lat="31.653132000" lon="34.921010000">
        <ele>401.800000</ele>
        <time>2014-01-24T11:24:19Z</time>
      </trkpt>
      <trkpt lat="31.653281000" lon="34.919892000">
        <ele>399.600000</ele>
        <time>2014-01-24T11:24:34Z</time>
      </trkpt>
      <trkpt lat="31.653087000" lon="34.919460000">
        <ele>399.600000</ele>
        <time>2014-01-24T11:24:45Z</time>
      </trkpt>
      <trkpt lat="31.652749000" lon="34.919150000">
        <ele>400.500000</ele>
        <time>2014-01-24T11:24:54Z</time>
      </trkpt>
      <trkpt lat="31.652100000" lon="34.919128000">
        <ele>391.300000</ele>
        <time>2014-01-24T11:25:06Z</time>
      </trkpt>
      <trkpt lat="31.651415000" lon="34.919456000">
        <ele>387.800000</ele>
        <time>2014-01-24T11:25:21Z</time>
      </trkpt>
      <trkpt lat="31.650521000" lon="34.919452000">
        <ele>387.200000</ele>
        <time>2014-01-24T11:25:37Z</time>
      </trkpt>
      <trkpt lat="31.650164000" lon="34.919169000">
        <ele>387.400000</ele>
        <time>2014-01-24T11:25:43Z</time>
      </trkpt>
      <trkpt lat="31.649857000" lon="34.918226000">
        <ele>395.900000</ele>
        <time>2014-01-24T11:25:57Z</time>
      </trkpt>
      <trkpt lat="31.649424000" lon="34.917949000">
        <ele>400.800000</ele>
        <time>2014-01-24T11:26:07Z</time>
      </trkpt>
      <trkpt lat="31.648060000" lon="34.918552000">
        <ele>397.200000</ele>
        <time>2014-01-24T11:26:42Z</time>
      </trkpt>
      <trkpt lat="31.647689000" lon="34.918516000">
        <ele>394.700000</ele>
        <time>2014-01-24T11:26:50Z</time>
      </trkpt>
      <trkpt lat="31.647569000" lon="34.918044000">
        <ele>399.200000</ele>
        <time>2014-01-24T11:26:59Z</time>
      </trkpt>
      <trkpt lat="31.647688000" lon="34.917466000">
        <ele>402.400000</ele>
        <time>2014-01-24T11:27:11Z</time>
      </trkpt>
      <trkpt lat="31.647250000" lon="34.916041000">
        <ele>409.200000</ele>
        <time>2014-01-24T11:27:44Z</time>
      </trkpt>
      <trkpt lat="31.646626000" lon="34.916339000">
        <ele>392.800000</ele>
        <time>2014-01-24T11:27:54Z</time>
      </trkpt>
      <trkpt lat="31.645732000" lon="34.916312000">
        <ele>389.000000</ele>
        <time>2014-01-24T11:28:10Z</time>
      </trkpt>
      <trkpt lat="31.645343000" lon="34.916505000">
        <ele>395.700000</ele>
        <time>2014-01-24T11:28:20Z</time>
      </trkpt>
      <trkpt lat="31.644929000" lon="34.916475000">
        <ele>394.100000</ele>
        <time>2014-01-24T11:28:29Z</time>
      </trkpt>
      <trkpt lat="31.643385000" lon="34.915937000">
        <ele>389.000000</ele>
        <time>2014-01-24T11:28:58Z</time>
      </trkpt>
      <trkpt lat="31.642771000" lon="34.915880000">
        <ele>392.100000</ele>
        <time>2014-01-24T11:29:21Z</time>
      </trkpt>
      <trkpt lat="31.642581000" lon="34.915188000">
        <ele>403.900000</ele>
        <time>2014-01-24T11:29:41Z</time>
      </trkpt>
      <trkpt lat="31.641354000" lon="34.914893000">
        <ele>405.000000</ele>
        <time>2014-01-24T11:30:14Z</time>
      </trkpt>
      <trkpt lat="31.640275000" lon="34.914322000">
        <ele>411.100000</ele>
        <time>2014-01-24T11:30:47Z</time>
      </trkpt>
      <trkpt lat="31.638523000" lon="34.914905000">
        <ele>407.600000</ele>
        <time>2014-01-24T11:31:28Z</time>
      </trkpt>
      <trkpt lat="31.638523000" lon="34.914286000">
        <ele>407.200000</ele>
        <time>2014-01-24T11:31:39Z</time>
      </trkpt>
      <trkpt lat="31.638945000" lon="34.913929000">
        <ele>405.000000</ele>
        <time>2014-01-24T11:31:50Z</time>
      </trkpt>
      <trkpt lat="31.638503000" lon="34.913733000">
        <ele>396.600000</ele>
        <time>2014-01-24T11:32:01Z</time>
      </trkpt>
      <trkpt lat="31.637550000" lon="34.913762000">
        <ele>380.500000</ele>
        <time>2014-01-24T11:32:16Z</time>
      </trkpt>
      <trkpt lat="31.638625000" lon="34.912782000">
        <ele>386.700000</ele>
        <time>2014-01-24T11:32:40Z</time>
      </trkpt>
      <trkpt lat="31.639114000" lon="34.912764000">
        <ele>379.700000</ele>
        <time>2014-01-24T11:32:48Z</time>
      </trkpt>
      <trkpt lat="31.639339000" lon="34.912302000">
        <ele>374.500000</ele>
        <time>2014-01-24T11:32:57Z</time>
      </trkpt>
      <trkpt lat="31.639238000" lon="34.912174000">
        <ele>372.800000</ele>
        <time>2014-01-24T11:33:03Z</time>
      </trkpt>
      <trkpt lat="31.638797000" lon="34.912349000">
        <ele>358.300000</ele>
        <time>2014-01-24T11:33:11Z</time>
      </trkpt>
      <trkpt lat="31.638488000" lon="34.912225000">
        <ele>349.700000</ele>
        <time>2014-01-24T11:33:18Z</time>
      </trkpt>
      <trkpt lat="31.638789000" lon="34.911969000">
        <ele>345.700000</ele>
        <time>2014-01-24T11:33:26Z</time>
      </trkpt>
      <trkpt lat="31.639369000" lon="34.910144000">
        <ele>325.700000</ele>
        <time>2014-01-24T11:33:47Z</time>
      </trkpt>
      <trkpt lat="31.639437000" lon="34.908160000">
        <ele>313.500000</ele>
        <time>2014-01-24T11:34:15Z</time>
      </trkpt>
      <trkpt lat="31.639287000" lon="34.906199000">
        <ele>305.900000</ele>
        <time>2014-01-24T11:34:48Z</time>
      </trkpt>
      <trkpt lat="31.639970000" lon="34.903517000">
        <ele>294.100000</ele>
        <time>2014-01-24T11:35:29Z</time>
      </trkpt>
      <trkpt lat="31.639483000" lon="34.903103000">
        <ele>294.600000</ele>
        <time>2014-01-24T11:35:45Z</time>
      </trkpt>
      <trkpt lat="31.638804000" lon="34.902862000">
        <ele>295.600000</ele>
        <time>2014-01-24T11:36:17Z</time>
      </trkpt>
      <trkpt lat="31.638288000" lon="34.902871000">
        <ele>300.900000</ele>
        <time>2014-01-24T11:36:41Z</time>
      </trkpt>
      <trkpt lat="31.637444000" lon="34.901589000">
        <ele>302.100000</ele>
        <time>2014-01-24T11:36:58Z</time>
      </trkpt>
      <trkpt lat="31.637525000" lon="34.899023000">
        <ele>285.100000</ele>
        <time>2014-01-24T11:37:39Z</time>
      </trkpt>
      <trkpt lat="31.638164000" lon="34.898253000">
        <ele>284.600000</ele>
        <time>2014-01-24T11:38:06Z</time>
      </trkpt>
      <trkpt lat="31.638300000" lon="34.897498000">
        <ele>277.400000</ele>
        <time>2014-01-24T11:38:21Z</time>
      </trkpt>
      <trkpt lat="31.637913000" lon="34.895831000">
        <ele>272.000000</ele>
        <time>2014-01-24T11:38:54Z</time>
      </trkpt>
      <trkpt lat="31.637978000" lon="34.892853000">
        <ele>267.000000</ele>
        <time>2014-01-24T11:39:43Z</time>
      </trkpt>
      <trkpt lat="31.637693000" lon="34.892015000">
        <ele>266.200000</ele>
        <time>2014-01-24T11:39:58Z</time>
      </trkpt>
      <trkpt lat="31.636637000" lon="34.890001000">
        <ele>257.600000</ele>
        <time>2014-01-24T11:40:38Z</time>
      </trkpt>
      <trkpt lat="31.635376000" lon="34.888794000">
        <ele>256.200000</ele>
        <time>2014-01-24T11:41:06Z</time>
      </trkpt>
      <trkpt lat="31.635155000" lon="34.888269000">
        <ele>256.100000</ele>
        <time>2014-01-24T11:41:29Z</time>
      </trkpt>
      <trkpt lat="31.635403000" lon="34.888605000">
        <ele>254.000000</ele>
        <time>2014-01-24T11:41:50Z</time>
      </trkpt>
      <trkpt lat="31.635800000" lon="34.888299000">
        <ele>257.400000</ele>
        <time>2014-01-24T11:42:02Z</time>
      </trkpt>
      <trkpt lat="31.635798000" lon="34.887234000">
        <ele>260.400000</ele>
        <time>2014-01-24T11:42:25Z</time>
      </trkpt>
      <trkpt lat="31.635917000" lon="34.887058000">
        <ele>257.100000</ele>
        <time>2014-01-24T11:42:30Z</time>
      </trkpt>
      <trkpt lat="31.636520000" lon="34.886737000">
        <ele>259.200000</ele>
        <time>2014-01-24T11:42:52Z</time>
      </trkpt>
      <trkpt lat="31.637224000" lon="34.886577000">
        <ele>263.600000</ele>
        <time>2014-01-24T11:43:24Z</time>
      </trkpt>
      <trkpt lat="31.637665000" lon="34.886124000">
        <ele>265.600000</ele>
        <time>2014-01-24T11:43:49Z</time>
      </trkpt>
      <trkpt lat="31.638178000" lon="34.886258000">
        <ele>269.200000</ele>
        <time>2014-01-24T11:44:08Z</time>
      </trkpt>
      <trkpt lat="31.638581000" lon="34.886064000">
        <ele>277.000000</ele>
        <time>2014-01-24T11:44:18Z</time>
      </trkpt>
      <trkpt lat="31.638765000" lon="34.884971000">
        <ele>270.500000</ele>
        <time>2014-01-24T11:44:44Z</time>
      </trkpt>
      <trkpt lat="31.640973000" lon="34.884465000">
        <ele>277.100000</ele>
        <time>2014-01-24T11:45:36Z</time>
      </trkpt>
      <trkpt lat="31.642791000" lon="34.883806000">
        <ele>281.700000</ele>
        <time>2014-01-24T11:46:41Z</time>
      </trkpt>
      <trkpt lat="31.643235000" lon="34.883499000">
        <ele>282.400000</ele>
        <time>2014-01-24T11:46:52Z</time>
      </trkpt>
      <trkpt lat="31.643264000" lon="34.882957000">
        <ele>280.900000</ele>
        <time>2014-01-24T11:47:00Z</time>
      </trkpt>
      <trkpt lat="31.642992000" lon="34.882019000">
        <ele>278.200000</ele>
        <time>2014-01-24T11:47:14Z</time>
      </trkpt>
      <trkpt lat="31.643235000" lon="34.880328000">
        <ele>270.000000</ele>
        <time>2014-01-24T11:47:36Z</time>
      </trkpt>
      <trkpt lat="31.642647000" lon="34.879836000">
        <ele>267.100000</ele>
        <time>2014-01-24T11:47:51Z</time>
      </trkpt>
      <trkpt lat="31.642573000" lon="34.878863000">
        <ele>264.000000</ele>
        <time>2014-01-24T11:48:07Z</time>
      </trkpt>
      <trkpt lat="31.643087000" lon="34.876978000">
        <ele>262.200000</ele>
        <time>2014-01-24T11:48:35Z</time>
      </trkpt>
      <trkpt lat="31.643386000" lon="34.876912000">
        <ele>262.200000</ele>
        <time>2014-01-24T11:48:42Z</time>
      </trkpt>
      <trkpt lat="31.649524000" lon="34.878321000">
        <ele>248.400000</ele>
        <time>2014-01-24T11:50:28Z</time>
      </trkpt>
      <trkpt lat="31.652759000" lon="34.877279000">
        <ele>252.800000</ele>
        <time>2014-01-24T11:51:40Z</time>
      </trkpt>
      <trkpt lat="31.653391000" lon="34.877290000">
        <ele>255.300000</ele>
        <time>2014-01-24T11:51:58Z</time>
      </trkpt>
      <trkpt lat="31.655696000" lon="34.877754000">
        <ele>253.800000</ele>
        <time>2014-01-24T11:52:50Z</time>
      </trkpt>
      <trkpt lat="31.657650000" lon="34.876711000">
        <ele>243.500000</ele>
        <time>2014-01-24T11:53:22Z</time>
      </trkpt>
      <trkpt lat="31.659790000" lon="34.876762000">
        <ele>234.900000</ele>
        <time>2014-01-24T11:53:48Z</time>
      </trkpt>
      <trkpt lat="31.663003000" lon="34.877603000">
        <ele>213.600000</ele>
        <time>2014-01-24T11:54:30Z</time>
      </trkpt>
      <trkpt lat="31.666065000" lon="34.879587000">
        <ele>205.000000</ele>
        <time>2014-01-24T11:55:22Z</time>
      </trkpt>
      <trkpt lat="31.669189000" lon="34.880765000">
        <ele>195.400000</ele>
        <time>2014-01-24T11:56:12Z</time>
      </trkpt>
      <trkpt lat="31.672483000" lon="34.881013000">
        <ele>196.700000</ele>
        <time>2014-01-24T11:57:04Z</time>
      </trkpt>
      <trkpt lat="31.675662000" lon="34.880707000">
        <ele>192.300000</ele>
        <time>2014-01-24T11:57:52Z</time>
      </trkpt>
      <trkpt lat="31.674614000" lon="34.879961000">
        <ele>196.500000</ele>
        <time>2014-01-24T11:58:45Z</time>
      </trkpt>
      <trkpt lat="31.674509000" lon="34.879618000">
        <ele>198.800000</ele>
        <time>2014-01-24T11:58:59Z</time>
      </trkpt>
      <trkpt lat="31.674564000" lon="34.878745000">
        <ele>203.800000</ele>
        <time>2014-01-24T11:59:21Z</time>
      </trkpt>
      <trkpt lat="31.673490000" lon="34.877751000">
        <ele>200.500000</ele>
        <time>2014-01-24T11:59:50Z</time>
      </trkpt>
      <trkpt lat="31.673479000" lon="34.875932000">
        <ele>200.700000</ele>
        <time>2014-01-24T12:00:29Z</time>
      </trkpt>
      <trkpt lat="31.674037000" lon="34.873027000">
        <ele>214.600000</ele>
        <time>2014-01-24T12:02:24Z</time>
      </trkpt>
      <trkpt lat="31.674068000" lon="34.872451000">
        <ele>217.600000</ele>
        <time>2014-01-24T12:02:49Z</time>
      </trkpt>
      <trkpt lat="31.673877000" lon="34.871663000">
        <ele>222.700000</ele>
        <time>2014-01-24T12:03:24Z</time>
      </trkpt>
      <trkpt lat="31.675131000" lon="34.871693000">
        <ele>226.000000</ele>
        <time>2014-01-24T12:04:02Z</time>
      </trkpt>
      <trkpt lat="31.675960000" lon="34.870624000">
        <ele>223.000000</ele>
        <time>2014-01-24T12:04:27Z</time>
      </trkpt>
      <trkpt lat="31.676486000" lon="34.870347000">
        <ele>218.700000</ele>
        <time>2014-01-24T12:04:37Z</time>
      </trkpt>
      <trkpt lat="31.677824000" lon="34.870106000">
        <ele>218.700000</ele>
        <time>2014-01-24T12:05:01Z</time>
      </trkpt>
      <trkpt lat="31.678889000" lon="34.870215000">
        <ele>212.100000</ele>
        <time>2014-01-24T12:05:19Z</time>
      </trkpt>
      <trkpt lat="31.678989000" lon="34.870004000">
        <ele>211.500000</ele>
        <time>2014-01-24T12:05:24Z</time>
      </trkpt>
      <trkpt lat="31.678588000" lon="34.869049000">
        <ele>211.500000</ele>
        <time>2014-01-24T12:05:43Z</time>
      </trkpt>
      <trkpt lat="31.679231000" lon="34.868596000">
        <ele>203.900000</ele>
        <time>2014-01-24T12:05:59Z</time>
      </trkpt>
      <trkpt lat="31.679602000" lon="34.868571000">
        <ele>202.300000</ele>
        <time>2014-01-24T12:06:05Z</time>
      </trkpt>
      <trkpt lat="31.680759000" lon="34.868614000">
        <ele>195.200000</ele>
        <time>2014-01-24T12:06:23Z</time>
      </trkpt>
      <trkpt lat="31.681646000" lon="34.868856000">
        <ele>192.100000</ele>
        <time>2014-01-24T12:06:40Z</time>
      </trkpt>
      <trkpt lat="31.682332000" lon="34.869369000">
        <ele>188.200000</ele>
        <time>2014-01-24T12:06:54Z</time>
      </trkpt>
      <trkpt lat="31.683142000" lon="34.869742000">
        <ele>187.800000</ele>
        <time>2014-01-24T12:07:10Z</time>
      </trkpt>
      <trkpt lat="31.683718000" lon="34.870257000">
        <ele>184.300000</ele>
        <time>2014-01-24T12:07:22Z</time>
      </trkpt>
      <trkpt lat="31.685291000" lon="34.871071000">
        <ele>181.300000</ele>
        <time>2014-01-24T12:07:52Z</time>
      </trkpt>
      <trkpt lat="31.685879000" lon="34.871781000">
        <ele>179.800000</ele>
        <time>2014-01-24T12:08:10Z</time>
      </trkpt>
      <trkpt lat="31.687424000" lon="34.872897000">
        <ele>175.100000</ele>
        <time>2014-01-24T12:08:43Z</time>
      </trkpt>
      <trkpt lat="31.688449000" lon="34.872290000">
        <ele>177.200000</ele>
        <time>2014-01-24T12:09:08Z</time>
      </trkpt>
      <trkpt lat="31.688752000" lon="34.872299000">
        <ele>176.600000</ele>
        <time>2014-01-24T12:09:14Z</time>
      </trkpt>
      <trkpt lat="31.689434000" lon="34.872643000">
        <ele>169.700000</ele>
        <time>2014-01-24T12:09:27Z</time>
      </trkpt>
      <trkpt lat="31.689938000" lon="34.871939000">
        <ele>171.900000</ele>
        <time>2014-01-24T12:09:46Z</time>
      </trkpt>
      <trkpt lat="31.690348000" lon="34.872633000">
        <ele>169.800000</ele>
        <time>2014-01-24T12:10:04Z</time>
      </trkpt>
      <trkpt lat="31.691335000" lon="34.873395000">
        <ele>172.400000</ele>
        <time>2014-01-24T12:10:42Z</time>
      </trkpt>
      <trkpt lat="31.691647000" lon="34.874394000">
        <ele>174.700000</ele>
        <time>2014-01-24T12:11:12Z</time>
      </trkpt>
      <trkpt lat="31.691592000" lon="34.874631000">
        <ele>175.100000</ele>
        <time>2014-01-24T12:11:18Z</time>
      </trkpt>
      <trkpt lat="31.691219000" lon="34.874919000">
        <ele>176.500000</ele>
        <time>2014-01-24T12:11:31Z</time>
      </trkpt>
      <trkpt lat="31.690933000" lon="34.875701000">
        <ele>181.500000</ele>
        <time>2014-01-24T12:12:04Z</time>
      </trkpt>
      <trkpt lat="31.690528000" lon="34.876100000">
        <ele>186.600000</ele>
        <time>2014-01-24T12:12:23Z</time>
      </trkpt>
      <trkpt lat="31.690732000" lon="34.877130000">
        <ele>187.200000</ele>
        <time>2014-01-24T12:12:51Z</time>
      </trkpt>
      <trkpt lat="31.690748000" lon="34.878112000">
        <ele>188.200000</ele>
        <time>2014-01-24T12:13:19Z</time>
      </trkpt>
      <trkpt lat="31.691146000" lon="34.878968000">
        <ele>191.700000</ele>
        <time>2014-01-24T12:13:46Z</time>
      </trkpt>
      <trkpt lat="31.690774000" lon="34.881480000">
        <ele>197.200000</ele>
        <time>2014-01-24T12:14:33Z</time>
      </trkpt>
      <trkpt lat="31.691059000" lon="34.881697000">
        <ele>197.700000</ele>
        <time>2014-01-24T12:14:40Z</time>
      </trkpt>
      <trkpt lat="31.691745000" lon="34.881567000">
        <ele>195.200000</ele>
        <time>2014-01-24T12:14:54Z</time>
      </trkpt>
      <trkpt lat="31.693674000" lon="34.882041000">
        <ele>183.900000</ele>
        <time>2014-01-24T12:15:24Z</time>
      </trkpt>
      <trkpt lat="31.693927000" lon="34.882170000">
        <ele>181.600000</ele>
        <time>2014-01-24T12:15:28Z</time>
      </trkpt>
      <trkpt lat="31.694580000" lon="34.883043000">
        <ele>177.100000</ele>
        <time>2014-01-24T12:15:46Z</time>
      </trkpt>
      <trkpt lat="31.694567000" lon="34.884008000">
        <ele>176.000000</ele>
        <time>2014-01-24T12:16:03Z</time>
      </trkpt>
      <trkpt lat="31.694361000" lon="34.884883000">
        <ele>176.700000</ele>
        <time>2014-01-24T12:16:24Z</time>
      </trkpt>
      <trkpt lat="31.693712000" lon="34.885630000">
        <ele>181.700000</ele>
        <time>2014-01-24T12:16:52Z</time>
      </trkpt>
      <trkpt lat="31.693213000" lon="34.887006000">
        <ele>185.200000</ele>
        <time>2014-01-24T12:17:36Z</time>
      </trkpt>
      <trkpt lat="31.692806000" lon="34.888795000">
        <ele>191.200000</ele>
        <time>2014-01-24T12:18:38Z</time>
      </trkpt>
      <trkpt lat="31.692355000" lon="34.889749000">
        <ele>194.100000</ele>
        <time>2014-01-24T12:19:13Z</time>
      </trkpt>
      <trkpt lat="31.692402000" lon="34.891987000">
        <ele>201.700000</ele>
        <time>2014-01-24T12:20:27Z</time>
      </trkpt>
      <trkpt lat="31.692825000" lon="34.892267000">
        <ele>198.200000</ele>
        <time>2014-01-24T12:20:35Z</time>
      </trkpt>
      <trkpt lat="31.692909000" lon="34.892923000">
        <ele>195.400000</ele>
        <time>2014-01-24T12:20:45Z</time>
      </trkpt>
      <trkpt lat="31.694089000" lon="34.893147000">
        <ele>195.500000</ele>
        <time>2014-01-24T12:21:13Z</time>
      </trkpt>
      <trkpt lat="31.695196000" lon="34.893737000">
        <ele>193.600000</ele>
        <time>2014-01-24T12:21:36Z</time>
      </trkpt>
      <trkpt lat="31.696226000" lon="34.894534000">
        <ele>192.500000</ele>
        <time>2014-01-24T12:22:00Z</time>
      </trkpt>
      <trkpt lat="31.696775000" lon="34.894758000">
        <ele>192.800000</ele>
        <time>2014-01-24T12:22:10Z</time>
      </trkpt>
      <trkpt lat="31.697211000" lon="34.895370000">
        <ele>192.500000</ele>
        <time>2014-01-24T12:22:27Z</time>
      </trkpt>
      <trkpt lat="31.697967000" lon="34.895971000">
        <ele>196.600000</ele>
        <time>2014-01-24T12:23:09Z</time>
      </trkpt>
      <trkpt lat="31.699138000" lon="34.897740000">
        <ele>200.600000</ele>
        <time>2014-01-24T12:23:59Z</time>
      </trkpt>
      <trkpt lat="31.700115000" lon="34.899784000">
        <ele>195.000000</ele>
        <time>2014-01-24T12:24:35Z</time>
      </trkpt>
      <trkpt lat="31.701136000" lon="34.901458000">
        <ele>188.900000</ele>
        <time>2014-01-24T12:25:06Z</time>
      </trkpt>
      <trkpt lat="31.701428000" lon="34.902293000">
        <ele>190.600000</ele>
        <time>2014-01-24T12:25:31Z</time>
      </trkpt>
      <trkpt lat="31.702025000" lon="34.903148000">
        <ele>194.300000</ele>
        <time>2014-01-24T12:26:05Z</time>
      </trkpt>
      <trkpt lat="31.702933000" lon="34.903575000">
        <ele>199.700000</ele>
        <time>2014-01-24T12:26:29Z</time>
      </trkpt>
      <trkpt lat="31.703686000" lon="34.904179000">
        <ele>197.500000</ele>
        <time>2014-01-24T12:26:47Z</time>
      </trkpt>
      <trkpt lat="31.704867000" lon="34.906770000">
        <ele>195.700000</ele>
        <time>2014-01-24T12:27:44Z</time>
      </trkpt>
      <trkpt lat="31.706000000" lon="34.908284000">
        <ele>196.600000</ele>
        <time>2014-01-24T12:28:28Z</time>
      </trkpt>
      <trkpt lat="31.705515000" lon="34.908985000">
        <ele>198.300000</ele>
        <time>2014-01-24T12:29:05Z</time>
      </trkpt>
      <trkpt lat="31.704010000" lon="34.910315000">
        <ele>213.700000</ele>
        <time>2014-01-24T12:31:10Z</time>
      </trkpt>
      <trkpt lat="31.703817000" lon="34.910925000">
        <ele>217.400000</ele>
        <time>2014-01-24T12:31:41Z</time>
      </trkpt>
      <trkpt lat="31.703076000" lon="34.911108000">
        <ele>216.200000</ele>
        <time>2014-01-24T12:32:03Z</time>
      </trkpt>
      <trkpt lat="31.702008000" lon="34.912610000">
        <ele>212.200000</ele>
        <time>2014-01-24T12:32:30Z</time>
      </trkpt>
      <trkpt lat="31.700826000" lon="34.913658000">
        <ele>216.200000</ele>
        <time>2014-01-24T12:34:09Z</time>
      </trkpt>
      <trkpt lat="31.700222000" lon="34.914740000">
        <ele>217.500000</ele>
        <time>2014-01-24T12:34:47Z</time>
      </trkpt>
      <trkpt lat="31.699761000" lon="34.916196000">
        <ele>222.300000</ele>
        <time>2014-01-24T12:35:45Z</time>
      </trkpt>
      <trkpt lat="31.699387000" lon="34.918042000">
        <ele>229.100000</ele>
        <time>2014-01-24T12:36:37Z</time>
      </trkpt>
      <trkpt lat="31.699553000" lon="34.919163000">
        <ele>231.200000</ele>
        <time>2014-01-24T12:37:11Z</time>
      </trkpt>
      <trkpt lat="31.699293000" lon="34.920265000">
        <ele>233.300000</ele>
        <time>2014-01-24T12:37:46Z</time>
      </trkpt>
      <trkpt lat="31.699233000" lon="34.921823000">
        <ele>236.200000</ele>
        <time>2014-01-24T12:38:38Z</time>
      </trkpt>
      <trkpt lat="31.699472000" lon="34.923371000">
        <ele>242.400000</ele>
        <time>2014-01-24T12:39:33Z</time>
      </trkpt>
      <trkpt lat="31.700847000" lon="34.925998000">
        <ele>258.200000</ele>
        <time>2014-01-24T12:42:06Z</time>
      </trkpt>
      <trkpt lat="31.701111000" lon="34.926759000">
        <ele>261.900000</ele>
        <time>2014-01-24T12:42:42Z</time>
      </trkpt>
      <trkpt lat="31.701064000" lon="34.927405000">
        <ele>263.100000</ele>
        <time>2014-01-24T12:43:01Z</time>
      </trkpt>
      <trkpt lat="31.702822000" lon="34.928732000">
        <ele>251.700000</ele>
        <time>2014-01-24T12:43:31Z</time>
      </trkpt>
      <trkpt lat="31.703515000" lon="34.929028000">
        <ele>246.000000</ele>
        <time>2014-01-24T12:43:46Z</time>
      </trkpt>
      <trkpt lat="31.703447000" lon="34.929155000">
        <ele>242.900000</ele>
        <time>2014-01-24T12:50:00Z</time>
      </trkpt>
    </trkseg>
  </trk>
</gpx>
